<?xml version="1.0" encoding="UTF-8" standalone="no" ?>
<gpx xmlns="http://www.topografix.com/GPX/1/1" xmlns:xsi="http://www.w3.org/2001/XMLSchema-instance" xsi:schemaLocation="http://www.topografix.com/GPX/1/1 http://www.topografix.com/GPX/1/1/gpx.xsd" version="1.1" creator="VisuGPX - https://www.visugpx.com">
  <metadata>
    <name>13764238-2021 12 11 Nocturne des Moulins</name>
  </metadata>
  <trk>
    <name><![CDATA[13764238-2021 12 11 Nocturne des Moulins]]></name>
    <trkseg>
      <trkpt lat="47.59112" lon="1.19754">
        <ele>134</ele>
        <time>2021-11-27T20:27:36Z</time>
      </trkpt>
      <trkpt lat="47.59013" lon="1.19769">
        <ele>130</ele>
        <time>2021-11-27T20:28:26Z</time>
      </trkpt>
      <trkpt lat="47.58886" lon="1.19761">
        <ele>127</ele>
        <time>2021-11-27T20:29:29Z</time>
      </trkpt>
      <trkpt lat="47.58826" lon="1.19709">
        <ele>126</ele>
        <time>2021-11-27T20:30:04Z</time>
      </trkpt>
      <trkpt lat="47.58817" lon="1.19769">
        <ele>126</ele>
        <time>2021-11-27T20:30:25Z</time>
      </trkpt>
      <trkpt lat="47.58804" lon="1.198">
        <ele>127</ele>
        <time>2021-11-27T20:30:37Z</time>
      </trkpt>
      <trkpt lat="47.58679" lon="1.19657">
        <ele>114</ele>
        <time>2021-11-27T20:31:56Z</time>
      </trkpt>
      <trkpt lat="47.5861" lon="1.19625">
        <ele>112</ele>
        <time>2021-11-27T20:32:32Z</time>
      </trkpt>
      <trkpt lat="47.58583" lon="1.19591">
        <ele>113</ele>
        <time>2021-11-27T20:32:50Z</time>
      </trkpt>
      <trkpt lat="47.58523" lon="1.19516">
        <ele>119</ele>
        <time>2021-11-27T20:33:29Z</time>
      </trkpt>
      <trkpt lat="47.58441" lon="1.19387">
        <ele>128</ele>
        <time>2021-11-27T20:34:29Z</time>
      </trkpt>
      <trkpt lat="47.5837" lon="1.19328">
        <ele>128</ele>
        <time>2021-11-27T20:35:10Z</time>
      </trkpt>
      <trkpt lat="47.5837" lon="1.19328">
        <ele>128</ele>
        <time>2021-11-27T20:35:10Z</time>
      </trkpt>
      <trkpt lat="47.58307" lon="1.19262">
        <ele>128</ele>
        <time>2021-11-27T20:35:49Z</time>
      </trkpt>
      <trkpt lat="47.58214" lon="1.19296">
        <ele>128</ele>
        <time>2021-11-27T20:36:37Z</time>
      </trkpt>
      <trkpt lat="47.58152" lon="1.19283">
        <ele>128</ele>
        <time>2021-11-27T20:37:08Z</time>
      </trkpt>
      <trkpt lat="47.57986" lon="1.19315">
        <ele>119</ele>
        <time>2021-11-27T20:38:32Z</time>
      </trkpt>
      <trkpt lat="47.57947" lon="1.19311">
        <ele>121</ele>
        <time>2021-11-27T20:38:51Z</time>
      </trkpt>
      <trkpt lat="47.57923" lon="1.19285">
        <ele>121</ele>
        <time>2021-11-27T20:39:06Z</time>
      </trkpt>
      <trkpt lat="47.57905" lon="1.19265">
        <ele>120</ele>
        <time>2021-11-27T20:39:17Z</time>
      </trkpt>
      <trkpt lat="47.57623" lon="1.19256">
        <ele>124</ele>
        <time>2021-11-27T20:41:38Z</time>
      </trkpt>
      <trkpt lat="47.57576" lon="1.19246">
        <ele>124</ele>
        <time>2021-11-27T20:42:02Z</time>
      </trkpt>
      <trkpt lat="47.57535" lon="1.1923">
        <ele>126</ele>
        <time>2021-11-27T20:42:23Z</time>
      </trkpt>
      <trkpt lat="47.5713" lon="1.19094">
        <ele>115</ele>
        <time>2021-11-27T20:45:51Z</time>
      </trkpt>
      <trkpt lat="47.57063" lon="1.19066">
        <ele>113</ele>
        <time>2021-11-27T20:46:26Z</time>
      </trkpt>
      <trkpt lat="47.56884" lon="1.19121">
        <ele>111</ele>
        <time>2021-11-27T20:47:58Z</time>
      </trkpt>
      <trkpt lat="47.5671" lon="1.19191">
        <ele>109</ele>
        <time>2021-11-27T20:49:28Z</time>
      </trkpt>
      <trkpt lat="47.56719" lon="1.19247">
        <ele>110</ele>
        <time>2021-11-27T20:49:47Z</time>
      </trkpt>
      <trkpt lat="47.56716" lon="1.19308">
        <ele>113</ele>
        <time>2021-11-27T20:50:08Z</time>
      </trkpt>
      <trkpt lat="47.56727" lon="1.19358">
        <ele>114</ele>
        <time>2021-11-27T20:50:26Z</time>
      </trkpt>
      <trkpt lat="47.56782" lon="1.19554">
        <ele>116</ele>
        <time>2021-11-27T20:51:37Z</time>
      </trkpt>
      <trkpt lat="47.56778" lon="1.19699">
        <ele>114</ele>
        <time>2021-11-27T20:52:26Z</time>
      </trkpt>
      <trkpt lat="47.56763" lon="1.19748">
        <ele>113</ele>
        <time>2021-11-27T20:52:45Z</time>
      </trkpt>
      <trkpt lat="47.56803" lon="1.19895">
        <ele>119</ele>
        <time>2021-11-27T20:53:38Z</time>
      </trkpt>
      <trkpt lat="47.56841" lon="1.20013">
        <ele>121</ele>
        <time>2021-11-27T20:54:22Z</time>
      </trkpt>
      <trkpt lat="47.56877" lon="1.20075">
        <ele>123</ele>
        <time>2021-11-27T20:54:50Z</time>
      </trkpt>
      <trkpt lat="47.56894" lon="1.20116">
        <ele>124</ele>
        <time>2021-11-27T20:55:06Z</time>
      </trkpt>
      <trkpt lat="47.56918" lon="1.20134">
        <ele>125</ele>
        <time>2021-11-27T20:55:20Z</time>
      </trkpt>
      <trkpt lat="47.5693" lon="1.20179">
        <ele>124</ele>
        <time>2021-11-27T20:55:36Z</time>
      </trkpt>
      <trkpt lat="47.56955" lon="1.20226">
        <ele>124</ele>
        <time>2021-11-27T20:55:56Z</time>
      </trkpt>
      <trkpt lat="47.5697" lon="1.20295">
        <ele>123</ele>
        <time>2021-11-27T20:56:21Z</time>
      </trkpt>
      <trkpt lat="47.56992" lon="1.20403">
        <ele>121</ele>
        <time>2021-11-27T20:56:59Z</time>
      </trkpt>
      <trkpt lat="47.56995" lon="1.20459">
        <ele>119</ele>
        <time>2021-11-27T20:57:18Z</time>
      </trkpt>
      <trkpt lat="47.57009" lon="1.20555">
        <ele>120</ele>
        <time>2021-11-27T20:57:51Z</time>
      </trkpt>
      <trkpt lat="47.57042" lon="1.2066">
        <ele>118</ele>
        <time>2021-11-27T20:58:30Z</time>
      </trkpt>
      <trkpt lat="47.57067" lon="1.208">
        <ele>104</ele>
        <time>2021-11-27T20:59:19Z</time>
      </trkpt>
      <trkpt lat="47.57067" lon="1.20833">
        <ele>99</ele>
        <time>2021-11-27T20:59:30Z</time>
      </trkpt>
      <trkpt lat="47.57153" lon="1.20857">
        <ele>99</ele>
        <time>2021-11-27T21:00:14Z</time>
      </trkpt>
      <trkpt lat="47.5711" lon="1.20979">
        <ele>85</ele>
        <time>2021-11-27T21:01:00Z</time>
      </trkpt>
      <trkpt lat="47.56947" lon="1.21213">
        <ele>76</ele>
        <time>2021-11-27T21:02:54Z</time>
      </trkpt>
      <trkpt lat="47.5691" lon="1.21142">
        <ele>76</ele>
        <time>2021-11-27T21:03:24Z</time>
      </trkpt>
      <trkpt lat="47.56856" lon="1.21023">
        <ele>78</ele>
        <time>2021-11-27T21:04:12Z</time>
      </trkpt>
      <trkpt lat="47.56806" lon="1.20924">
        <ele>76</ele>
        <time>2021-11-27T21:04:54Z</time>
      </trkpt>
      <trkpt lat="47.56758" lon="1.20852">
        <ele>76</ele>
        <time>2021-11-27T21:05:28Z</time>
      </trkpt>
      <trkpt lat="47.56705" lon="1.20785">
        <ele>77</ele>
        <time>2021-11-27T21:06:03Z</time>
      </trkpt>
      <trkpt lat="47.5668" lon="1.20741">
        <ele>78</ele>
        <time>2021-11-27T21:06:23Z</time>
      </trkpt>
      <trkpt lat="47.56649" lon="1.20698">
        <ele>79</ele>
        <time>2021-11-27T21:06:44Z</time>
      </trkpt>
      <trkpt lat="47.56599" lon="1.2065">
        <ele>80</ele>
        <time>2021-11-27T21:07:14Z</time>
      </trkpt>
      <trkpt lat="47.56578" lon="1.20662">
        <ele>77</ele>
        <time>2021-11-27T21:07:25Z</time>
      </trkpt>
      <trkpt lat="47.5657" lon="1.20686">
        <ele>76</ele>
        <time>2021-11-27T21:07:34Z</time>
      </trkpt>
      <trkpt lat="47.5657" lon="1.20795">
        <ele>76</ele>
        <time>2021-11-27T21:08:11Z</time>
      </trkpt>
      <trkpt lat="47.56553" lon="1.21051">
        <ele>81</ele>
        <time>2021-11-27T21:09:38Z</time>
      </trkpt>
      <trkpt lat="47.56605" lon="1.21086">
        <ele>80</ele>
        <time>2021-11-27T21:10:06Z</time>
      </trkpt>
      <trkpt lat="47.56636" lon="1.21125">
        <ele>79</ele>
        <time>2021-11-27T21:10:27Z</time>
      </trkpt>
      <trkpt lat="47.56683" lon="1.21111">
        <ele>77</ele>
        <time>2021-11-27T21:10:51Z</time>
      </trkpt>
      <trkpt lat="47.56711" lon="1.21129">
        <ele>77</ele>
        <time>2021-11-27T21:11:06Z</time>
      </trkpt>
      <trkpt lat="47.56763" lon="1.21145">
        <ele>76</ele>
        <time>2021-11-27T21:11:32Z</time>
      </trkpt>
      <trkpt lat="47.56784" lon="1.2117">
        <ele>76</ele>
        <time>2021-11-27T21:11:46Z</time>
      </trkpt>
      <trkpt lat="47.56863" lon="1.21198">
        <ele>77</ele>
        <time>2021-11-27T21:12:27Z</time>
      </trkpt>
      <trkpt lat="47.56912" lon="1.21217">
        <ele>76</ele>
        <time>2021-11-27T21:12:52Z</time>
      </trkpt>
      <trkpt lat="47.56937" lon="1.21204">
        <ele>76</ele>
        <time>2021-11-27T21:13:05Z</time>
      </trkpt>
      <trkpt lat="47.56974" lon="1.21258">
        <ele>77</ele>
        <time>2021-11-27T21:13:31Z</time>
      </trkpt>
      <trkpt lat="47.56999" lon="1.2131">
        <ele>77</ele>
        <time>2021-11-27T21:13:53Z</time>
      </trkpt>
      <trkpt lat="47.57079" lon="1.21384">
        <ele>77</ele>
        <time>2021-11-27T21:14:40Z</time>
      </trkpt>
      <trkpt lat="47.57167" lon="1.21447">
        <ele>78</ele>
        <time>2021-11-27T21:15:29Z</time>
      </trkpt>
      <trkpt lat="47.5722" lon="1.2148">
        <ele>79</ele>
        <time>2021-11-27T21:15:58Z</time>
      </trkpt>
      <trkpt lat="47.57266" lon="1.21471">
        <ele>81</ele>
        <time>2021-11-27T21:16:21Z</time>
      </trkpt>
      <trkpt lat="47.57308" lon="1.21434">
        <ele>83</ele>
        <time>2021-11-27T21:16:45Z</time>
      </trkpt>
      <trkpt lat="47.57552" lon="1.21271">
        <ele>89</ele>
        <time>2021-11-27T21:18:59Z</time>
      </trkpt>
      <trkpt lat="47.57604" lon="1.2123">
        <ele>90</ele>
        <time>2021-11-27T21:19:29Z</time>
      </trkpt>
      <trkpt lat="47.57588" lon="1.21171">
        <ele>91</ele>
        <time>2021-11-27T21:19:50Z</time>
      </trkpt>
      <trkpt lat="47.57584" lon="1.21122">
        <ele>90</ele>
        <time>2021-11-27T21:20:07Z</time>
      </trkpt>
      <trkpt lat="47.57585" lon="1.21036">
        <ele>92</ele>
        <time>2021-11-27T21:20:36Z</time>
      </trkpt>
      <trkpt lat="47.57642" lon="1.21025">
        <ele>94</ele>
        <time>2021-11-27T21:21:05Z</time>
      </trkpt>
      <trkpt lat="47.57763" lon="1.20952">
        <ele>93</ele>
        <time>2021-11-27T21:22:10Z</time>
      </trkpt>
      <trkpt lat="47.57798" lon="1.20864">
        <ele>92</ele>
        <time>2021-11-27T21:22:44Z</time>
      </trkpt>
      <trkpt lat="47.57833" lon="1.2079">
        <ele>91</ele>
        <time>2021-11-27T21:23:15Z</time>
      </trkpt>
      <trkpt lat="47.57864" lon="1.20738">
        <ele>91</ele>
        <time>2021-11-27T21:23:38Z</time>
      </trkpt>
      <trkpt lat="47.57881" lon="1.20684">
        <ele>92</ele>
        <time>2021-11-27T21:23:58Z</time>
      </trkpt>
      <trkpt lat="47.57898" lon="1.20651">
        <ele>93</ele>
        <time>2021-11-27T21:24:12Z</time>
      </trkpt>
      <trkpt lat="47.57921" lon="1.20615">
        <ele>94</ele>
        <time>2021-11-27T21:24:29Z</time>
      </trkpt>
      <trkpt lat="47.57953" lon="1.20556">
        <ele>95</ele>
        <time>2021-11-27T21:24:55Z</time>
      </trkpt>
      <trkpt lat="47.57975" lon="1.20481">
        <ele>97</ele>
        <time>2021-11-27T21:25:22Z</time>
      </trkpt>
      <trkpt lat="47.57994" lon="1.20445">
        <ele>97</ele>
        <time>2021-11-27T21:25:38Z</time>
      </trkpt>
      <trkpt lat="47.57971" lon="1.20343">
        <ele>105</ele>
        <time>2021-11-27T21:26:14Z</time>
      </trkpt>
      <trkpt lat="47.57962" lon="1.20232">
        <ele>112</ele>
        <time>2021-11-27T21:26:52Z</time>
      </trkpt>
      <trkpt lat="47.57965" lon="1.20168">
        <ele>112</ele>
        <time>2021-11-27T21:27:14Z</time>
      </trkpt>
      <trkpt lat="47.57988" lon="1.2001">
        <ele>111</ele>
        <time>2021-11-27T21:28:08Z</time>
      </trkpt>
      <trkpt lat="47.57998" lon="1.19922">
        <ele>115</ele>
        <time>2021-11-27T21:28:38Z</time>
      </trkpt>
      <trkpt lat="47.58018" lon="1.19805">
        <ele>116</ele>
        <time>2021-11-27T21:29:19Z</time>
      </trkpt>
      <trkpt lat="47.58036" lon="1.19717">
        <ele>119</ele>
        <time>2021-11-27T21:29:50Z</time>
      </trkpt>
      <trkpt lat="47.58035" lon="1.19672">
        <ele>120</ele>
        <time>2021-11-27T21:30:05Z</time>
      </trkpt>
      <trkpt lat="47.58021" lon="1.19545">
        <ele>119</ele>
        <time>2021-11-27T21:30:49Z</time>
      </trkpt>
      <trkpt lat="47.58012" lon="1.19531">
        <ele>118</ele>
        <time>2021-11-27T21:30:55Z</time>
      </trkpt>
      <trkpt lat="47.57907" lon="1.19442">
        <ele>124</ele>
        <time>2021-11-27T21:31:56Z</time>
      </trkpt>
      <trkpt lat="47.57923" lon="1.19288">
        <ele>121</ele>
        <time>2021-11-27T21:32:48Z</time>
      </trkpt>
      <trkpt lat="47.57949" lon="1.1931">
        <ele>121</ele>
        <time>2021-11-27T21:33:03Z</time>
      </trkpt>
      <trkpt lat="47.57987" lon="1.19313">
        <ele>119</ele>
        <time>2021-11-27T21:33:22Z</time>
      </trkpt>
      <trkpt lat="47.58153" lon="1.19286">
        <ele>128</ele>
        <time>2021-11-27T21:34:46Z</time>
      </trkpt>
      <trkpt lat="47.58212" lon="1.19298">
        <ele>128</ele>
        <time>2021-11-27T21:35:16Z</time>
      </trkpt>
      <trkpt lat="47.58305" lon="1.19262">
        <ele>128</ele>
        <time>2021-11-27T21:36:04Z</time>
      </trkpt>
      <trkpt lat="47.58369" lon="1.19329">
        <ele>128</ele>
        <time>2021-11-27T21:36:43Z</time>
      </trkpt>
      <trkpt lat="47.58442" lon="1.19386">
        <ele>128</ele>
        <time>2021-11-27T21:37:24Z</time>
      </trkpt>
      <trkpt lat="47.5852" lon="1.19516">
        <ele>120</ele>
        <time>2021-11-27T21:38:23Z</time>
      </trkpt>
      <trkpt lat="47.58583" lon="1.1959">
        <ele>113</ele>
        <time>2021-11-27T21:39:03Z</time>
      </trkpt>
      <trkpt lat="47.58609" lon="1.19624">
        <ele>112</ele>
        <time>2021-11-27T21:39:21Z</time>
      </trkpt>
      <trkpt lat="47.58679" lon="1.19654">
        <ele>115</ele>
        <time>2021-11-27T21:39:57Z</time>
      </trkpt>
      <trkpt lat="47.58806" lon="1.198">
        <ele>127</ele>
        <time>2021-11-27T21:41:17Z</time>
      </trkpt>
      <trkpt lat="47.58815" lon="1.19767">
        <ele>126</ele>
        <time>2021-11-27T21:41:29Z</time>
      </trkpt>
      <trkpt lat="47.58826" lon="1.19707">
        <ele>126</ele>
        <time>2021-11-27T21:41:50Z</time>
      </trkpt>
      <trkpt lat="47.58886" lon="1.19762">
        <ele>127</ele>
        <time>2021-11-27T21:42:26Z</time>
      </trkpt>
      <trkpt lat="47.59012" lon="1.1977">
        <ele>130</ele>
        <time>2021-11-27T21:43:29Z</time>
      </trkpt>
      <trkpt lat="47.59111" lon="1.19754">
        <ele>134</ele>
        <time>2021-11-27T21:44:19Z</time>
      </trkpt>
    </trkseg>
  </trk>
</gpx>